createdAt,value
2018-09-15T00:00:58.485Z,18.60
2018-09-15T00:03:30.665Z,18.60
2018-09-15T00:05:59.617Z,18.70
2018-09-15T00:08:29.149Z,18.80
2018-09-15T00:10:58.227Z,18.70
2018-09-15T00:13:27.221Z,18.80
2018-09-15T00:15:56.419Z,18.80
2018-09-15T00:18:25.712Z,18.80
2018-09-15T00:20:55.223Z,18.80
2018-09-15T00:23:24.026Z,18.80
2018-09-15T00:25:53.301Z,18.90
2018-09-15T00:28:22.401Z,18.90
2018-09-15T00:30:52.114Z,18.80
2018-09-15T00:33:21.106Z,18.80
2018-09-15T00:35:50.502Z,18.70
2018-09-15T00:38:19.881Z,18.70
2018-09-15T00:40:48.795Z,18.70
2018-09-15T00:43:17.686Z,18.70
2018-09-15T00:45:46.888Z,18.70
2018-09-15T00:48:15.948Z,18.70
2018-09-15T00:50:45.214Z,18.70
2018-09-15T00:53:14.278Z,18.60
2018-09-15T00:55:43.603Z,18.60
2018-09-15T00:58:12.815Z,18.50
2018-09-15T01:00:41.755Z,18.60
2018-09-15T01:03:10.941Z,18.60
2018-09-15T01:05:40.226Z,18.60
2018-09-15T01:08:09.170Z,18.50
2018-09-15T01:10:38.335Z,18.40
2018-09-15T01:13:07.312Z,18.40
2018-09-15T01:15:41.158Z,18.40
2018-09-15T01:18:16.389Z,18.40
2018-09-15T01:20:51.122Z,18.40
2018-09-15T01:23:24.499Z,18.40
2018-09-15T01:25:59.931Z,18.30
2018-09-15T01:28:34.338Z,18.40
2018-09-15T01:31:07.278Z,18.30
2018-09-15T01:33:41.614Z,18.30
2018-09-15T01:36:14.961Z,18.20
2018-09-15T01:38:48.704Z,18.20
2018-09-15T01:41:22.380Z,18.20
2018-09-15T01:43:56.457Z,18.20
2018-09-15T01:46:31.221Z,18.20
2018-09-15T01:49:04.412Z,18.30
2018-09-15T01:51:38.701Z,18.30
2018-09-15T01:54:13.331Z,18.40
2018-09-15T01:56:49.866Z,18.30
2018-09-15T01:59:24.497Z,18.30
2018-09-15T02:01:59.396Z,18.30
2018-09-15T02:04:33.384Z,18.30
2018-09-15T02:07:07.517Z,18.30
2018-09-15T02:09:41.840Z,18.20
2018-09-15T02:12:17.265Z,18.20
2018-09-15T02:14:49.779Z,18.30
2018-09-15T02:17:21.823Z,18.30
2018-09-15T02:19:55.586Z,18.20
2018-09-15T02:22:29.414Z,18.30
2018-09-15T02:25:03.822Z,18.10
2018-09-15T02:27:36.285Z,18.10
2018-09-15T02:30:09.769Z,18.10
2018-09-15T02:32:42.798Z,18.10
2018-09-15T02:35:16.362Z,18.00
2018-09-15T02:37:50.297Z,18.00
2018-09-15T02:40:23.195Z,18.00
2018-09-15T02:42:56.885Z,17.90
2018-09-15T02:45:30.409Z,17.90
2018-09-15T02:48:04.143Z,18.00
2018-09-15T02:50:38.272Z,18.00
2018-09-15T02:53:12.031Z,17.90
2018-09-15T02:55:45.132Z,17.90
2018-09-15T02:58:17.912Z,17.80
2018-09-15T03:00:50.332Z,17.70
2018-09-15T03:03:23.224Z,17.60
2018-09-15T03:05:56.922Z,17.60
2018-09-15T03:08:30.022Z,17.60
2018-09-15T03:11:03.521Z,17.50
2018-09-15T03:13:36.963Z,17.50
2018-09-15T03:16:12.059Z,17.50
2018-09-15T03:18:44.518Z,17.50
2018-09-15T03:21:17.131Z,17.40
2018-09-15T03:23:49.760Z,17.40
2018-09-15T03:26:22.369Z,17.40
2018-09-15T03:28:54.913Z,17.30
2018-09-15T03:31:29.182Z,17.20
2018-09-15T03:34:01.980Z,17.30
2018-09-15T03:36:34.691Z,17.20
2018-09-15T03:39:08.913Z,17.20
2018-09-15T03:41:37.788Z,17.30
2018-09-15T03:44:06.870Z,17.10
2018-09-15T03:46:35.958Z,17.10
2018-09-15T03:49:05.026Z,17.20
2018-09-15T03:51:34.936Z,17.20
2018-09-15T03:54:04.865Z,17.10
2018-09-15T03:56:33.976Z,16.90
2018-09-15T03:59:02.846Z,16.90
2018-09-15T04:01:31.647Z,17.00
2018-09-15T04:04:00.925Z,16.80
2018-09-15T04:06:30.016Z,16.80
2018-09-15T04:08:59.040Z,16.80
2018-09-15T04:11:27.901Z,16.80
2018-09-15T04:13:56.793Z,16.80
2018-09-15T04:16:25.821Z,16.80
2018-09-15T04:18:54.846Z,16.70
2018-09-15T04:21:23.873Z,16.60
2018-09-15T04:23:52.733Z,16.60
2018-09-15T04:26:21.813Z,16.60
2018-09-15T04:28:51.076Z,16.50
2018-09-15T04:31:20.165Z,16.50
2018-09-15T04:33:49.418Z,16.50
2018-09-15T04:36:18.416Z,16.50
2018-09-15T04:38:47.430Z,16.40
2018-09-15T04:41:16.285Z,16.30
2018-09-15T04:43:45.167Z,16.30
2018-09-15T04:46:14.171Z,16.10
2018-09-15T04:48:43.175Z,16.10
2018-09-15T04:51:12.270Z,16.00
2018-09-15T04:53:41.593Z,16.00
2018-09-15T04:56:10.608Z,16.00
2018-09-15T04:58:39.955Z,16.00
2018-09-15T05:01:08.969Z,15.90
2018-09-15T05:03:38.261Z,15.90
2018-09-15T05:06:07.881Z,15.90
2018-09-15T05:08:36.774Z,15.80
2018-09-15T05:11:05.760Z,15.80
2018-09-15T05:13:34.886Z,15.80
2018-09-15T05:16:04.004Z,15.70
2018-09-15T05:18:33.075Z,15.70
2018-09-15T05:21:01.955Z,15.70
2018-09-15T05:23:31.365Z,15.60
2018-09-15T05:26:00.479Z,15.60
2018-09-15T05:28:29.370Z,15.50
2018-09-15T05:30:58.339Z,15.60
2018-09-15T05:33:27.402Z,15.60
2018-09-15T05:35:56.405Z,15.60
2018-09-15T05:38:25.376Z,15.60
2018-09-15T05:40:54.616Z,15.60
2018-09-15T05:43:23.454Z,15.60
2018-09-15T05:45:52.641Z,15.60
2018-09-15T05:48:21.541Z,15.60
2018-09-15T05:50:50.630Z,15.70
2018-09-15T05:53:20.135Z,15.70
2018-09-15T05:55:49.438Z,15.60
2018-09-15T05:58:18.634Z,15.70
2018-09-15T06:00:47.737Z,15.80
2018-09-15T06:03:16.895Z,15.70
2018-09-15T06:05:46.006Z,15.70
2018-09-15T06:08:15.012Z,15.70
2018-09-15T06:10:44.002Z,15.80
2018-09-15T06:13:13.121Z,16.00
2018-09-15T06:15:44.135Z,15.70
2018-09-15T06:18:13.375Z,15.80
2018-09-15T06:20:42.484Z,15.80
2018-09-15T06:23:11.417Z,15.90
2018-09-15T06:25:40.461Z,16.00
2018-09-15T06:28:09.459Z,16.00
2018-09-15T06:30:38.427Z,16.00
2018-09-15T06:33:07.447Z,16.10
2018-09-15T06:35:36.354Z,16.10
2018-09-15T06:38:05.465Z,16.20
2018-09-15T06:40:34.299Z,16.20
2018-09-15T06:43:03.324Z,16.20
2018-09-15T06:45:32.366Z,16.30
2018-09-15T06:48:01.088Z,16.40
2018-09-15T06:50:30.324Z,16.40
2018-09-15T06:52:59.311Z,16.60
2018-09-15T06:55:28.091Z,16.60
2018-09-15T06:57:56.982Z,16.60
2018-09-15T07:00:25.950Z,16.50
2018-09-15T07:02:55.170Z,16.60
2018-09-15T07:05:24.269Z,16.60
2018-09-15T07:07:53.400Z,16.80
2018-09-15T07:10:22.253Z,16.70
2018-09-15T07:12:51.112Z,16.70
2018-09-15T07:15:20.218Z,16.80
2018-09-15T07:17:49.272Z,17.00
2018-09-15T07:20:18.168Z,17.10
2018-09-15T07:22:47.027Z,17.10
2018-09-15T07:25:15.826Z,17.20
2018-09-15T07:27:44.719Z,17.40
2018-09-15T07:30:13.582Z,17.40
2018-09-15T07:32:42.775Z,17.50
2018-09-15T07:35:11.682Z,17.60
2018-09-15T07:37:40.599Z,17.60
2018-09-15T07:40:09.869Z,17.60
2018-09-15T07:42:39.675Z,17.80
2018-09-15T07:45:08.904Z,18.00
2018-09-15T07:47:37.790Z,18.30
2018-09-15T07:50:06.946Z,18.50
2018-09-15T07:52:35.680Z,18.80
2018-09-15T07:55:04.617Z,18.70
2018-09-15T07:57:33.540Z,18.60
2018-09-15T08:00:02.279Z,18.70
2018-09-15T08:02:30.993Z,19.00
2018-09-15T08:04:59.855Z,19.20
2018-09-15T08:07:28.744Z,19.50
2018-09-15T08:09:57.523Z,19.60
2018-09-15T08:12:26.578Z,19.70
2018-09-15T08:14:55.635Z,19.90
2018-09-15T08:17:24.849Z,19.70
2018-09-15T08:19:53.686Z,19.50
2018-09-15T08:22:22.484Z,19.70
2018-09-15T08:24:51.230Z,20.30
2018-09-15T08:27:19.943Z,21.20
2018-09-15T08:29:48.730Z,22.10
2018-09-15T08:32:17.566Z,23.10
2018-09-15T08:34:46.257Z,23.50
2018-09-15T08:37:15.086Z,24.00
2018-09-15T08:39:43.773Z,24.90
2018-09-15T08:42:12.658Z,25.30
2018-09-15T08:44:41.784Z,26.10
2018-09-15T08:47:10.642Z,27.00
2018-09-15T08:49:39.720Z,27.70
2018-09-15T08:52:08.600Z,28.30
2018-09-15T08:54:37.783Z,28.90
2018-09-15T08:57:06.612Z,29.80
2018-09-15T08:59:35.375Z,30.40
2018-09-15T09:02:04.280Z,31.10
2018-09-15T09:04:33.003Z,31.80
2018-09-15T09:07:01.745Z,32.50
2018-09-15T09:09:30.552Z,33.10
2018-09-15T09:11:59.317Z,33.70
2018-09-15T09:14:28.014Z,33.00
2018-09-15T09:16:56.818Z,33.00
2018-09-15T09:19:25.601Z,33.80
2018-09-15T09:21:54.806Z,34.30
2018-09-15T09:24:23.602Z,35.20
2018-09-15T09:26:52.344Z,35.10
2018-09-15T09:29:21.090Z,35.40
2018-09-15T09:31:50.060Z,35.20
2018-09-15T09:34:18.899Z,35.00
2018-09-15T09:36:47.705Z,35.50
2018-09-15T09:39:16.486Z,37.00
2018-09-15T09:41:45.244Z,38.80
2018-09-15T09:44:13.968Z,40.00
2018-09-15T09:46:42.764Z,40.90
2018-09-15T09:49:11.474Z,41.20
2018-09-15T09:51:40.222Z,41.40
2018-09-15T09:54:08.934Z,41.40
2018-09-15T09:56:37.844Z,40.90
2018-09-15T09:59:06.556Z,37.00
2018-09-15T10:01:40.543Z,34.20
2018-09-15T10:04:09.206Z,34.30
2018-09-15T10:06:37.934Z,36.50
2018-09-15T10:09:09.983Z,37.90
2018-09-15T10:11:39.873Z,39.30
2018-09-15T10:14:08.599Z,40.50
2018-09-15T10:16:37.385Z,42.40
2018-09-15T10:19:06.869Z,43.80
2018-09-15T10:21:35.700Z,44.20
2018-09-15T10:24:04.355Z,43.40
2018-09-15T10:26:33.138Z,43.00
2018-09-15T10:29:01.838Z,43.40
2018-09-15T10:31:30.708Z,43.60
2018-09-15T10:33:59.471Z,44.60
2018-09-15T10:36:28.313Z,44.80
2018-09-15T10:38:57.041Z,44.30
2018-09-15T10:41:25.894Z,42.80
2018-09-15T10:43:54.642Z,43.50
2018-09-15T10:46:23.343Z,44.30
2018-09-15T10:48:52.140Z,45.50
2018-09-15T10:51:20.880Z,45.50
2018-09-15T10:53:49.656Z,45.70
2018-09-15T10:56:18.440Z,44.10
2018-09-15T10:58:47.210Z,44.60
2018-09-15T11:01:16.032Z,45.20
2018-09-15T11:03:44.738Z,43.40
2018-09-15T11:06:13.567Z,45.30
2018-09-15T11:08:42.445Z,43.80
2018-09-15T11:11:11.162Z,40.20
2018-09-15T11:13:39.945Z,36.70
2018-09-15T11:16:08.710Z,34.50
2018-09-15T11:18:37.431Z,35.10
2018-09-15T11:21:06.135Z,37.90
2018-09-15T11:23:34.872Z,39.10
2018-09-15T11:26:03.619Z,41.10
2018-09-15T11:28:32.383Z,42.50
2018-09-15T11:31:01.115Z,43.20
2018-09-15T11:33:29.824Z,44.50
2018-09-15T11:35:58.573Z,43.90
2018-09-15T11:38:27.304Z,44.00
2018-09-15T11:40:56.061Z,44.40
2018-09-15T11:43:24.776Z,43.20
2018-09-15T11:45:53.436Z,40.20
2018-09-15T11:48:22.129Z,37.30
2018-09-15T11:50:50.804Z,35.90
2018-09-15T11:53:19.661Z,33.50
2018-09-15T11:55:48.400Z,32.30
2018-09-15T11:58:17.143Z,31.60
2018-09-15T12:00:53.245Z,31.20
2018-09-15T12:03:22.029Z,30.50
2018-09-15T12:05:50.812Z,29.50
2018-09-15T12:08:19.589Z,29.00
2018-09-15T12:10:48.349Z,28.60
2018-09-15T12:13:17.052Z,28.50
2018-09-15T12:15:45.782Z,28.30
2018-09-15T12:18:14.550Z,28.30
2018-09-15T12:20:43.850Z,28.10
2018-09-15T12:23:12.705Z,27.50
2018-09-15T12:25:41.846Z,26.90
2018-09-15T12:28:10.741Z,26.50
2018-09-15T12:30:39.563Z,26.40
2018-09-15T12:33:08.415Z,26.10
2018-09-15T12:35:37.134Z,25.50
2018-09-15T12:38:05.885Z,25.40
2018-09-15T12:40:34.605Z,25.40
2018-09-15T12:43:03.385Z,25.50
2018-09-15T12:45:32.128Z,25.30
2018-09-15T12:48:00.876Z,25.30
2018-09-15T12:50:29.797Z,25.40
2018-09-15T12:52:58.570Z,25.60
2018-09-15T12:55:27.256Z,25.60
2018-09-15T12:57:56.184Z,25.40
2018-09-15T13:00:24.892Z,24.90
2018-09-15T13:02:53.596Z,24.80
2018-09-15T13:05:22.372Z,25.10
2018-09-15T13:07:51.334Z,25.10
2018-09-15T13:10:20.054Z,24.80
2018-09-15T13:12:48.930Z,25.00
2018-09-15T13:15:17.987Z,25.10
2018-09-15T13:17:46.629Z,25.30
2018-09-15T13:20:15.440Z,25.70
2018-09-15T13:22:44.126Z,26.40
2018-09-15T13:25:12.841Z,27.60
2018-09-15T13:27:41.575Z,28.50
2018-09-15T13:30:10.565Z,28.60
2018-09-15T13:32:39.245Z,27.90
2018-09-15T13:35:08.074Z,27.30
2018-09-15T13:37:36.815Z,27.70
2018-09-15T13:40:05.607Z,27.80
2018-09-15T13:42:34.386Z,27.20
2018-09-15T13:45:03.132Z,26.80
2018-09-15T13:47:31.835Z,26.20
2018-09-15T13:50:00.588Z,26.10
2018-09-15T13:52:29.310Z,25.80
2018-09-15T13:54:58.005Z,25.20
2018-09-15T13:57:26.741Z,25.10
2018-09-15T13:59:55.479Z,25.10
2018-09-15T14:02:24.285Z,25.00
2018-09-15T14:04:53.057Z,25.10
2018-09-15T14:07:21.774Z,25.00
2018-09-15T14:09:50.588Z,24.90
2018-09-15T14:12:19.284Z,24.90
2018-09-15T14:14:48.055Z,24.90
2018-09-15T14:17:16.787Z,25.10
2018-09-15T14:19:45.697Z,25.30
2018-09-15T14:22:14.440Z,25.60
2018-09-15T14:24:43.082Z,25.80
2018-09-15T14:27:11.923Z,25.50
2018-09-15T14:29:40.623Z,25.60
2018-09-15T14:32:09.324Z,25.70
2018-09-15T14:34:38.091Z,25.70
2018-09-15T14:37:06.796Z,25.60
2018-09-15T14:39:35.553Z,25.50
2018-09-15T14:42:04.356Z,25.50
2018-09-15T14:44:33.092Z,25.30
2018-09-15T14:47:01.861Z,24.90
2018-09-15T14:49:30.543Z,24.70
2018-09-15T14:51:59.277Z,24.70
2018-09-15T14:54:28.029Z,24.80
2018-09-15T14:56:56.799Z,24.70
2018-09-15T14:59:25.533Z,24.60
2018-09-15T15:01:54.448Z,24.50
2018-09-15T15:04:23.166Z,24.40
2018-09-15T15:06:51.860Z,24.30
2018-09-15T15:09:20.638Z,24.40
2018-09-15T15:11:49.407Z,24.30
2018-09-15T15:14:18.144Z,24.20
2018-09-15T15:16:46.901Z,24.00
2018-09-15T15:19:15.613Z,24.00
2018-09-15T15:21:44.329Z,24.00
2018-09-15T15:24:13.025Z,24.00
2018-09-15T15:26:41.945Z,23.90
2018-09-15T15:29:10.831Z,23.80
2018-09-15T15:31:39.575Z,23.70
2018-09-15T15:34:08.540Z,23.70
2018-09-15T15:36:37.329Z,23.80
2018-09-15T15:39:07.868Z,24.00
2018-09-15T15:41:36.564Z,24.10
2018-09-15T15:44:05.371Z,24.30
2018-09-15T15:46:34.088Z,24.20
2018-09-15T15:49:03.577Z,24.20
2018-09-15T15:51:32.407Z,24.00
2018-09-15T15:54:01.083Z,24.10
2018-09-15T15:56:29.852Z,25.10
2018-09-15T15:58:58.615Z,25.90
2018-09-15T16:01:27.342Z,26.60
2018-09-15T16:03:56.073Z,27.50
2018-09-15T16:06:24.822Z,28.30
2018-09-15T16:08:53.572Z,28.00
2018-09-15T16:11:22.308Z,27.20
2018-09-15T16:13:51.499Z,26.50
2018-09-15T16:16:20.280Z,26.20
2018-09-15T16:18:49.269Z,26.00
2018-09-15T16:21:17.958Z,26.10
2018-09-15T16:23:46.737Z,26.70
2018-09-15T16:26:15.522Z,26.30
2018-09-15T16:28:44.257Z,25.70
2018-09-15T16:31:13.002Z,25.00
2018-09-15T16:33:41.749Z,24.70
2018-09-15T16:36:10.514Z,24.60
2018-09-15T16:38:39.308Z,24.30
2018-09-15T16:41:08.057Z,24.70
2018-09-15T16:43:36.836Z,24.90
2018-09-15T16:46:05.635Z,24.30
2018-09-15T16:48:34.433Z,23.80
2018-09-15T16:51:03.244Z,23.50
2018-09-15T16:53:32.023Z,23.20
2018-09-15T16:56:00.790Z,22.90
2018-09-15T16:58:29.536Z,22.70
2018-09-15T17:00:58.252Z,22.60
2018-09-15T17:03:27.080Z,22.50
2018-09-15T17:05:55.730Z,22.40
2018-09-15T17:08:24.514Z,22.40
2018-09-15T17:10:53.240Z,22.20
2018-09-15T17:13:21.986Z,22.10
2018-09-15T17:15:50.711Z,22.00
2018-09-15T17:18:19.484Z,22.00
2018-09-15T17:20:48.246Z,21.80
2018-09-15T17:23:17.046Z,21.70
2018-09-15T17:25:46.071Z,21.70
2018-09-15T17:28:14.822Z,21.60
2018-09-15T17:30:43.525Z,21.50
2018-09-15T17:33:12.337Z,21.30
2018-09-15T17:35:41.105Z,21.20
2018-09-15T17:38:09.839Z,21.20
2018-09-15T17:40:38.570Z,21.20
2018-09-15T17:43:07.326Z,21.10
2018-09-15T17:45:36.148Z,21.10
2018-09-15T17:48:05.019Z,21.00
2018-09-15T17:50:33.784Z,20.90
2018-09-15T17:53:02.542Z,20.80
2018-09-15T17:55:31.330Z,20.80
2018-09-15T17:58:00.093Z,20.70
2018-09-15T18:00:28.850Z,20.70
2018-09-15T18:02:57.641Z,20.60
2018-09-15T18:05:26.469Z,20.60
2018-09-15T18:07:55.158Z,20.50
2018-09-15T18:10:23.977Z,20.50
2018-09-15T18:12:52.758Z,20.40
2018-09-15T18:15:21.660Z,20.20
2018-09-15T18:17:50.545Z,20.10
2018-09-15T18:20:19.351Z,20.00
2018-09-15T18:22:48.150Z,19.90
2018-09-15T18:25:16.900Z,19.60
2018-09-15T18:27:45.621Z,19.50
2018-09-15T18:30:14.450Z,19.30
2018-09-15T18:32:43.264Z,19.20
2018-09-15T18:35:12.150Z,19.10
2018-09-15T18:37:40.887Z,19.00
2018-09-15T18:40:09.797Z,19.10
2018-09-15T18:42:38.603Z,19.10
2018-09-15T18:45:07.687Z,19.20
2018-09-15T18:47:36.484Z,19.10
2018-09-15T18:50:05.353Z,19.10
2018-09-15T18:52:34.182Z,18.90
2018-09-15T18:55:03.023Z,18.80
2018-09-15T18:57:31.785Z,18.70
2018-09-15T19:00:00.602Z,18.60
2018-09-15T19:02:33.575Z,18.60
2018-09-15T19:05:02.356Z,18.60
2018-09-15T19:07:31.046Z,18.60
2018-09-15T19:09:59.814Z,18.60
2018-09-15T19:12:28.574Z,18.40
2018-09-15T19:14:57.346Z,18.40
2018-09-15T19:17:26.177Z,18.30
2018-09-15T19:19:55.025Z,18.30
2018-09-15T19:22:23.778Z,18.20
2018-09-15T19:24:52.543Z,18.20
2018-09-15T19:27:21.351Z,18.20
2018-09-15T19:29:50.117Z,18.10
2018-09-15T19:32:18.936Z,18.00
2018-09-15T19:34:47.701Z,18.00
2018-09-15T19:37:16.462Z,17.90
2018-09-15T19:39:45.218Z,17.90
2018-09-15T19:42:14.005Z,17.90
2018-09-15T19:44:42.742Z,17.80
2018-09-15T19:47:11.552Z,17.80
2018-09-15T19:49:40.457Z,17.80
2018-09-15T19:52:09.211Z,17.70
2018-09-15T19:54:38.029Z,17.70
2018-09-15T19:57:06.774Z,17.70
2018-09-15T19:59:35.542Z,17.60
2018-09-15T20:02:04.332Z,17.60
2018-09-15T20:04:38.707Z,17.50
2018-09-15T20:07:11.425Z,17.50
2018-09-15T20:09:40.242Z,17.50
2018-09-15T20:12:08.957Z,17.40
2018-09-15T20:14:37.782Z,17.30
2018-09-15T20:17:05.287Z,17.20
2018-09-15T20:19:32.841Z,17.10
2018-09-15T20:22:01.091Z,17.10
2018-09-15T20:24:29.893Z,17.10
2018-09-15T20:26:58.647Z,17.00
2018-09-15T20:29:27.818Z,16.90
2018-09-15T20:31:56.558Z,17.00
2018-09-15T20:34:25.338Z,16.90
2018-09-15T20:36:54.085Z,16.90
2018-09-15T20:39:22.917Z,16.90
2018-09-15T20:41:51.814Z,16.80
2018-09-15T20:44:20.531Z,16.70
2018-09-15T20:46:49.358Z,16.60
2018-09-15T20:49:18.163Z,16.60
2018-09-15T20:51:46.896Z,16.50
2018-09-15T20:54:15.698Z,16.40
2018-09-15T20:56:44.495Z,16.40
2018-09-15T20:59:13.271Z,16.40
2018-09-15T21:01:42.043Z,16.40
2018-09-15T21:04:10.833Z,16.40
2018-09-15T21:06:39.598Z,16.40
2018-09-15T21:09:10.185Z,16.40
2018-09-15T21:11:39.229Z,16.40
2018-09-15T21:14:07.955Z,16.30
2018-09-15T21:16:36.730Z,16.20
2018-09-15T21:19:05.576Z,16.10
2018-09-15T21:21:34.392Z,16.10
2018-09-15T21:24:03.154Z,16.20
2018-09-15T21:26:32.052Z,16.20
2018-09-15T21:29:00.827Z,16.10
2018-09-15T21:31:29.706Z,16.10
2018-09-15T21:33:58.513Z,16.10
2018-09-15T21:36:27.291Z,16.10
2018-09-15T21:38:56.092Z,16.10
2018-09-15T21:41:24.844Z,15.90
2018-09-15T21:43:53.721Z,15.90
2018-09-15T21:46:22.513Z,15.80
2018-09-15T21:48:51.328Z,15.80
2018-09-15T21:51:20.149Z,15.80
2018-09-15T21:53:48.918Z,15.80
2018-09-15T21:56:17.791Z,15.80
2018-09-15T21:58:46.538Z,15.70
2018-09-15T22:01:15.317Z,15.80
2018-09-15T22:03:49.360Z,15.60
2018-09-15T22:06:18.094Z,15.60
2018-09-15T22:08:46.841Z,15.60
2018-09-15T22:11:15.683Z,15.60
2018-09-15T22:13:44.485Z,15.50
2018-09-15T22:16:13.310Z,15.50
2018-09-15T22:18:42.106Z,15.50
2018-09-15T22:21:11.054Z,15.40
2018-09-15T22:23:39.750Z,15.30
2018-09-15T22:26:08.494Z,15.30
2018-09-15T22:28:37.319Z,15.30
2018-09-15T22:31:06.293Z,15.30
2018-09-15T22:33:35.112Z,15.30
2018-09-15T22:36:03.907Z,15.30
2018-09-15T22:38:32.729Z,15.20
2018-09-15T22:41:01.550Z,15.30
2018-09-15T22:43:30.641Z,15.30
2018-09-15T22:45:59.397Z,15.20
2018-09-15T22:48:28.224Z,15.20
2018-09-15T22:50:56.966Z,15.10
2018-09-15T22:53:25.736Z,15.10
2018-09-15T22:55:54.525Z,15.10
2018-09-15T22:58:23.305Z,15.20
2018-09-15T23:00:52.107Z,15.10
2018-09-15T23:03:20.971Z,15.00
2018-09-15T23:05:49.848Z,14.90
2018-09-15T23:08:18.717Z,14.90
2018-09-15T23:10:47.469Z,14.90
2018-09-15T23:13:16.278Z,14.90
2018-09-15T23:15:45.105Z,14.80
2018-09-15T23:18:13.860Z,14.80
2018-09-15T23:20:42.722Z,14.80
2018-09-15T23:23:11.509Z,14.80
2018-09-15T23:25:40.379Z,14.80
2018-09-15T23:28:09.159Z,14.80
2018-09-15T23:30:37.888Z,14.70
2018-09-15T23:33:06.745Z,14.70
2018-09-15T23:35:35.507Z,14.60
2018-09-15T23:38:04.364Z,14.60
2018-09-15T23:40:33.109Z,14.60
2018-09-15T23:43:02.022Z,14.40
2018-09-15T23:45:30.797Z,14.40
2018-09-15T23:47:59.674Z,14.20
2018-09-15T23:50:28.402Z,14.10
2018-09-15T23:52:57.172Z,14.20
2018-09-15T23:55:26.023Z,14.30
2018-09-15T23:57:54.885Z,14.40
